sensor_id;sensor_type;location;lat;lon;timestamp;temperature;humidity
77467;DHT22;66564;42.482;25.548;2023-04-24T00:01:42;11.85;57.02
77467;DHT22;66564;42.482;25.548;2023-04-24T00:04:08;11.79;56.96
77467;DHT22;66564;42.482;25.548;2023-04-24T00:06:36;11.83;56.91
77467;DHT22;66564;42.482;25.548;2023-04-24T00:09:06;11.81;57.85
77467;DHT22;66564;42.482;25.548;2023-04-24T00:11:32;11.79;57.43
77467;DHT22;66564;42.482;25.548;2023-04-24T00:13:57;11.78;57.45
77467;DHT22;66564;42.482;25.548;2023-04-24T00:16:23;11.75;57.57
77467;DHT22;66564;42.482;25.548;2023-04-24T00:18:49;11.75;58.18
77467;DHT22;66564;42.482;25.548;2023-04-24T00:21:15;11.68;57.87
77467;DHT22;66564;42.482;25.548;2023-04-24T00:23:42;11.65;58.21
77467;DHT22;66564;42.482;25.548;2023-04-24T00:26:09;11.61;58.57
77467;DHT22;66564;42.482;25.548;2023-04-24T00:28:34;11.64;58.29
77467;DHT22;66564;42.482;25.548;2023-04-24T00:31:00;11.68;58.16
77467;DHT22;66564;42.482;25.548;2023-04-24T00:33:26;11.64;57.97
77467;DHT22;66564;42.482;25.548;2023-04-24T00:35:51;11.61;58.58
77467;DHT22;66564;42.482;25.548;2023-04-24T00:38:17;11.58;57.90
77467;DHT22;66564;42.482;25.548;2023-04-24T00:40:43;11.48;57.76
77467;DHT22;66564;42.482;25.548;2023-04-24T00:43:08;11.41;58.48
77467;DHT22;66564;42.482;25.548;2023-04-24T00:45:34;11.45;58.57
77467;DHT22;66564;42.482;25.548;2023-04-24T00:48:00;11.34;58.39
77467;DHT22;66564;42.482;25.548;2023-04-24T00:50:25;11.25;59.15
77467;DHT22;66564;42.482;25.548;2023-04-24T00:52:51;11.18;59.70
77467;DHT22;66564;42.482;25.548;2023-04-24T00:55:18;11.30;59.60
77467;DHT22;66564;42.482;25.548;2023-04-24T00:57:45;11.32;59.24
77467;DHT22;66564;42.482;25.548;2023-04-24T01:00:11;11.31;59.21
77467;DHT22;66564;42.482;25.548;2023-04-24T01:02:45;11.31;59.18
77467;DHT22;66564;42.482;25.548;2023-04-24T01:05:12;11.34;59.03
77467;DHT22;66564;42.482;25.548;2023-04-24T01:07:39;11.35;58.70
77467;DHT22;66564;42.482;25.548;2023-04-24T01:10:07;11.34;59.13
77467;DHT22;66564;42.482;25.548;2023-04-24T01:12:33;11.31;59.17
77467;DHT22;66564;42.482;25.548;2023-04-24T01:14:59;11.27;59.32
77467;DHT22;66564;42.482;25.548;2023-04-24T01:17:45;11.18;59.52
77467;DHT22;66564;42.482;25.548;2023-04-24T01:20:10;11.21;59.56
77467;DHT22;66564;42.482;25.548;2023-04-24T01:22:36;11.24;59.58
77467;DHT22;66564;42.482;25.548;2023-04-24T01:25:03;11.23;59.32
77467;DHT22;66564;42.482;25.548;2023-04-24T01:27:29;11.23;59.58
77467;DHT22;66564;42.482;25.548;2023-04-24T01:29:54;11.25;59.26
77467;DHT22;66564;42.482;25.548;2023-04-24T01:32:20;11.25;58.86
77467;DHT22;66564;42.482;25.548;2023-04-24T01:34:46;11.20;59.31
77467;DHT22;66564;42.482;25.548;2023-04-24T01:37:12;11.11;58.81
77467;DHT22;66564;42.482;25.548;2023-04-24T01:39:37;11.10;59.42
77467;DHT22;66564;42.482;25.548;2023-04-24T01:42:04;11.08;59.05
77467;DHT22;66564;42.482;25.548;2023-04-24T01:44:30;10.89;60.18
77467;DHT22;66564;42.482;25.548;2023-04-24T01:46:56;10.93;59.17
77467;DHT22;66564;42.482;25.548;2023-04-24T01:49:21;10.87;59.49
77467;DHT22;66564;42.482;25.548;2023-04-24T01:51:47;10.89;59.31
77467;DHT22;66564;42.482;25.548;2023-04-24T01:54:13;10.83;59.40
77467;DHT22;66564;42.482;25.548;2023-04-24T01:56:42;10.76;59.99
77467;DHT22;66564;42.482;25.548;2023-04-24T01:59:12;10.79;60.14
77467;DHT22;66564;42.482;25.548;2023-04-24T02:01:38;10.83;59.67
77467;DHT22;66564;42.482;25.548;2023-04-24T02:04:05;10.80;59.59
77467;DHT22;66564;42.482;25.548;2023-04-24T02:06:31;10.64;60.37
77467;DHT22;66564;42.482;25.548;2023-04-24T02:08:58;10.67;59.86
77467;DHT22;66564;42.482;25.548;2023-04-24T02:11:24;10.70;59.41
77467;DHT22;66564;42.482;25.548;2023-04-24T02:13:49;10.64;59.74
77467;DHT22;66564;42.482;25.548;2023-04-24T02:16:15;10.70;59.93
77467;DHT22;66564;42.482;25.548;2023-04-24T02:18:41;10.77;60.40
77467;DHT22;66564;42.482;25.548;2023-04-24T02:21:06;10.79;60.16
77467;DHT22;66564;42.482;25.548;2023-04-24T02:23:32;10.76;59.91
77467;DHT22;66564;42.482;25.548;2023-04-24T02:25:57;10.74;60.23
77467;DHT22;66564;42.482;25.548;2023-04-24T02:28:23;10.80;60.70
77467;DHT22;66564;42.482;25.548;2023-04-24T02:30:49;10.84;60.33
77467;DHT22;66564;42.482;25.548;2023-04-24T02:33:15;10.84;60.15
77467;DHT22;66564;42.482;25.548;2023-04-24T02:35:41;10.72;60.94
77467;DHT22;66564;42.482;25.548;2023-04-24T02:38:06;10.76;60.38
77467;DHT22;66564;42.482;25.548;2023-04-24T02:40:32;10.70;60.31
77467;DHT22;66564;42.482;25.548;2023-04-24T02:42:57;10.64;60.48
77467;DHT22;66564;42.482;25.548;2023-04-24T02:45:23;10.55;60.57
77467;DHT22;66564;42.482;25.548;2023-04-24T02:47:48;10.56;61.27
77467;DHT22;66564;42.482;25.548;2023-04-24T02:50:14;10.60;61.07
77467;DHT22;66564;42.482;25.548;2023-04-24T02:52:40;10.67;60.78
77467;DHT22;66564;42.482;25.548;2023-04-24T02:55:05;10.63;60.62
77467;DHT22;66564;42.482;25.548;2023-04-24T02:57:33;10.59;60.98
77467;DHT22;66564;42.482;25.548;2023-04-24T02:59:58;10.56;60.87
77467;DHT22;66564;42.482;25.548;2023-04-24T03:02:24;10.66;60.71
77467;DHT22;66564;42.482;25.548;2023-04-24T03:04:50;10.60;61.25
77467;DHT22;66564;42.482;25.548;2023-04-24T03:07:16;10.67;60.76
77467;DHT22;66564;42.482;25.548;2023-04-24T03:09:41;10.64;61.39
77467;DHT22;66564;42.482;25.548;2023-04-24T03:12:08;10.66;61.06
77467;DHT22;66564;42.482;25.548;2023-04-24T03:14:46;10.55;60.59
77467;DHT22;66564;42.482;25.548;2023-04-24T03:17:11;10.38;60.98
77467;DHT22;66564;42.482;25.548;2023-04-24T03:19:37;10.38;61.13
77467;DHT22;66564;42.482;25.548;2023-04-24T03:22:02;10.26;61.87
77467;DHT22;66564;42.482;25.548;2023-04-24T03:24:28;10.32;61.43
77467;DHT22;66564;42.482;25.548;2023-04-24T03:26:54;10.39;61.45
77467;DHT22;66564;42.482;25.548;2023-04-24T03:29:22;10.38;61.61
77467;DHT22;66564;42.482;25.548;2023-04-24T03:31:47;10.33;61.67
77467;DHT22;66564;42.482;25.548;2023-04-24T03:34:13;10.30;61.70
77467;DHT22;66564;42.482;25.548;2023-04-24T03:36:40;10.42;61.34
77467;DHT22;66564;42.482;25.548;2023-04-24T03:39:05;10.46;61.38
77467;DHT22;66564;42.482;25.548;2023-04-24T03:41:31;10.43;61.18
77467;DHT22;66564;42.482;25.548;2023-04-24T03:43:57;10.46;61.77
77467;DHT22;66564;42.482;25.548;2023-04-24T03:46:22;10.35;62.39
77467;DHT22;66564;42.482;25.548;2023-04-24T03:48:47;10.30;62.36
77467;DHT22;66564;42.482;25.548;2023-04-24T03:51:16;10.40;62.28
77467;DHT22;66564;42.482;25.548;2023-04-24T03:53:41;10.48;62.51
77467;DHT22;66564;42.482;25.548;2023-04-24T03:56:07;10.55;61.81
77467;DHT22;66564;42.482;25.548;2023-04-24T03:58:33;10.59;61.97
77467;DHT22;66564;42.482;25.548;2023-04-24T04:00:59;10.60;61.92
77467;DHT22;66564;42.482;25.548;2023-04-24T04:03:25;10.59;62.59
77467;DHT22;66564;42.482;25.548;2023-04-24T04:05:51;10.62;62.44
77467;DHT22;66564;42.482;25.548;2023-04-24T04:08:16;10.69;62.45
77467;DHT22;66564;42.482;25.548;2023-04-24T04:10:42;10.77;63.04
77467;DHT22;66564;42.482;25.548;2023-04-24T04:13:07;10.92;62.89
77467;DHT22;66564;42.482;25.548;2023-04-24T04:15:33;11.03;62.85
77467;DHT22;66564;42.482;25.548;2023-04-24T04:17:58;11.15;62.31
77467;DHT22;66564;42.482;25.548;2023-04-24T04:20:24;11.23;62.47
77467;DHT22;66564;42.482;25.548;2023-04-24T04:22:49;11.35;62.38
77467;DHT22;66564;42.482;25.548;2023-04-24T04:25:15;11.38;62.77
77467;DHT22;66564;42.482;25.548;2023-04-24T04:27:41;11.42;62.93
77467;DHT22;66564;42.482;25.548;2023-04-24T04:30:07;11.59;62.10
77467;DHT22;66564;42.482;25.548;2023-04-24T04:32:34;11.59;61.25
77467;DHT22;66564;42.482;25.548;2023-04-24T04:35:01;11.59;61.38
77467;DHT22;66564;42.482;25.548;2023-04-24T04:37:30;11.69;60.74
77467;DHT22;66564;42.482;25.548;2023-04-24T04:39:59;11.77;60.64
77467;DHT22;66564;42.482;25.548;2023-04-24T04:42:26;11.82;60.97
77467;DHT22;66564;42.482;25.548;2023-04-24T04:44:52;11.89;59.14
77467;DHT22;66564;42.482;25.548;2023-04-24T04:47:21;11.95;59.20
77467;DHT22;66564;42.482;25.548;2023-04-24T04:49:50;11.96;59.10
77467;DHT22;66564;42.482;25.548;2023-04-24T04:52:17;11.98;59.15
77467;DHT22;66564;42.482;25.548;2023-04-24T04:54:43;11.99;61.07
77467;DHT22;66564;42.482;25.548;2023-04-24T04:57:08;11.99;61.59
77467;DHT22;66564;42.482;25.548;2023-04-24T04:59:34;12.05;61.43
77467;DHT22;66564;42.482;25.548;2023-04-24T05:02:00;12.03;62.04
77467;DHT22;66564;42.482;25.548;2023-04-24T05:04:25;11.99;62.27
77467;DHT22;66564;42.482;25.548;2023-04-24T05:06:52;12.10;62.30
77467;DHT22;66564;42.482;25.548;2023-04-24T05:09:18;12.13;61.56
77467;DHT22;66564;42.482;25.548;2023-04-24T05:11:43;12.09;60.45
77467;DHT22;66564;42.482;25.548;2023-04-24T05:14:09;12.25;60.77
77467;DHT22;66564;42.482;25.548;2023-04-24T05:16:34;12.33;60.50
77467;DHT22;66564;42.482;25.548;2023-04-24T05:19:02;12.44;59.65
77467;DHT22;66564;42.482;25.548;2023-04-24T05:21:28;12.54;58.56
77467;DHT22;66564;42.482;25.548;2023-04-24T05:23:53;12.64;58.87
77467;DHT22;66564;42.482;25.548;2023-04-24T05:26:19;12.77;58.80
77467;DHT22;66564;42.482;25.548;2023-04-24T05:28:44;12.87;58.58
77467;DHT22;66564;42.482;25.548;2023-04-24T05:31:10;12.96;57.42
77467;DHT22;66564;42.482;25.548;2023-04-24T05:33:35;13.07;57.72
77467;DHT22;66564;42.482;25.548;2023-04-24T05:36:01;13.11;56.91
77467;DHT22;66564;42.482;25.548;2023-04-24T05:38:27;13.27;56.58
77467;DHT22;66564;42.482;25.548;2023-04-24T05:40:52;13.22;55.55
77467;DHT22;66564;42.482;25.548;2023-04-24T05:43:18;13.14;56.33
77467;DHT22;66564;42.482;25.548;2023-04-24T05:45:43;13.32;56.27
77467;DHT22;66564;42.482;25.548;2023-04-24T05:48:09;13.52;55.83
77467;DHT22;66564;42.482;25.548;2023-04-24T05:50:35;13.71;55.83
77467;DHT22;66564;42.482;25.548;2023-04-24T05:53:00;13.89;54.90
77467;DHT22;66564;42.482;25.548;2023-04-24T05:55:27;14.01;54.05
77467;DHT22;66564;42.482;25.548;2023-04-24T05:57:53;14.15;54.76
77467;DHT22;66564;42.482;25.548;2023-04-24T06:00:19;14.27;54.24
77467;DHT22;66564;42.482;25.548;2023-04-24T06:02:46;14.48;53.78
77467;DHT22;66564;42.482;25.548;2023-04-24T06:05:12;14.67;54.37
77467;DHT22;66564;42.482;25.548;2023-04-24T06:07:38;14.59;54.91
77467;DHT22;66564;42.482;25.548;2023-04-24T06:10:03;14.67;53.15
77467;DHT22;66564;42.482;25.548;2023-04-24T06:12:29;14.68;53.88
77467;DHT22;66564;42.482;25.548;2023-04-24T06:14:55;14.55;53.03
77467;DHT22;66564;42.482;25.548;2023-04-24T06:17:21;14.67;52.97
77467;DHT22;66564;42.482;25.548;2023-04-24T06:19:46;14.77;53.42
77467;DHT22;66564;42.482;25.548;2023-04-24T06:22:12;14.81;53.07
77467;DHT22;66564;42.482;25.548;2023-04-24T06:24:39;14.85;53.47
77467;DHT22;66564;42.482;25.548;2023-04-24T06:27:05;14.91;53.46
77467;DHT22;66564;42.482;25.548;2023-04-24T06:29:31;14.83;53.17
77467;DHT22;66564;42.482;25.548;2023-04-24T06:31:57;14.80;53.04
77467;DHT22;66564;42.482;25.548;2023-04-24T06:34:22;14.71;52.64
77467;DHT22;66564;42.482;25.548;2023-04-24T06:36:48;14.64;54.01
77467;DHT22;66564;42.482;25.548;2023-04-24T06:39:13;14.61;52.74
77467;DHT22;66564;42.482;25.548;2023-04-24T06:41:39;14.77;52.21
77467;DHT22;66564;42.482;25.548;2023-04-24T06:44:05;14.90;51.91
77467;DHT22;66564;42.482;25.548;2023-04-24T06:46:31;14.90;52.48
77467;DHT22;66564;42.482;25.548;2023-04-24T06:48:56;15.17;52.58
77467;DHT22;66564;42.482;25.548;2023-04-24T06:51:25;15.05;52.08
77467;DHT22;66564;42.482;25.548;2023-04-24T06:53:55;15.38;51.14
77467;DHT22;66564;42.482;25.548;2023-04-24T06:56:23;15.66;50.79
77467;DHT22;66564;42.482;25.548;2023-04-24T06:58:49;15.51;50.23
77467;DHT22;66564;42.482;25.548;2023-04-24T07:01:14;15.87;50.70
77467;DHT22;66564;42.482;25.548;2023-04-24T07:03:40;15.95;49.21
77467;DHT22;66564;42.482;25.548;2023-04-24T07:06:05;15.83;49.18
77467;DHT22;66564;42.482;25.548;2023-04-24T07:08:31;15.90;48.38
77467;DHT22;66564;42.482;25.548;2023-04-24T07:10:59;15.92;48.44
77467;DHT22;66564;42.482;25.548;2023-04-24T07:13:25;16.12;48.51
77467;DHT22;66564;42.482;25.548;2023-04-24T07:15:51;16.49;48.76
77467;DHT22;66564;42.482;25.548;2023-04-24T07:18:19;16.71;46.77
77467;DHT22;66564;42.482;25.548;2023-04-24T07:20:54;16.68;46.92
77467;DHT22;66564;42.482;25.548;2023-04-24T07:23:20;16.60;47.02
77467;DHT22;66564;42.482;25.548;2023-04-24T07:25:46;16.68;46.87
77467;DHT22;66564;42.482;25.548;2023-04-24T07:28:12;16.75;47.11
77467;DHT22;66564;42.482;25.548;2023-04-24T07:30:38;17.21;48.13
77467;DHT22;66564;42.482;25.548;2023-04-24T07:33:04;17.62;47.31
77467;DHT22;66564;42.482;25.548;2023-04-24T07:35:29;17.61;45.49
77467;DHT22;66564;42.482;25.548;2023-04-24T07:37:55;17.52;45.67
77467;DHT22;66564;42.482;25.548;2023-04-24T07:40:21;17.83;46.16
77467;DHT22;66564;42.482;25.548;2023-04-24T07:42:47;18.09;45.06
77467;DHT22;66564;42.482;25.548;2023-04-24T07:45:16;18.23;44.50
77467;DHT22;66564;42.482;25.548;2023-04-24T07:47:42;18.47;45.17
77467;DHT22;66564;42.482;25.548;2023-04-24T07:50:09;18.47;43.96
77467;DHT22;66564;42.482;25.548;2023-04-24T07:52:35;18.61;43.61
77467;DHT22;66564;42.482;25.548;2023-04-24T07:55:00;18.97;44.13
77467;DHT22;66564;42.482;25.548;2023-04-24T07:57:27;18.81;45.18
77467;DHT22;66564;42.482;25.548;2023-04-24T07:59:53;19.19;42.81
77467;DHT22;66564;42.482;25.548;2023-04-24T08:02:18;19.32;42.48
77467;DHT22;66564;42.482;25.548;2023-04-24T08:04:44;19.53;42.48
77467;DHT22;66564;42.482;25.548;2023-04-24T08:07:09;19.39;41.89
77467;DHT22;66564;42.482;25.548;2023-04-24T08:09:35;19.73;41.92
77467;DHT22;66564;42.482;25.548;2023-04-24T08:12:00;20.04;42.57
77467;DHT22;66564;42.482;25.548;2023-04-24T08:14:27;20.20;40.57
77467;DHT22;66564;42.482;25.548;2023-04-24T08:16:56;20.47;41.00
77467;DHT22;66564;42.482;25.548;2023-04-24T08:19:22;20.54;40.52
77467;DHT22;66564;42.482;25.548;2023-04-24T08:21:47;20.79;41.09
77467;DHT22;66564;42.482;25.548;2023-04-24T08:24:13;20.77;39.90
77467;DHT22;66564;42.482;25.548;2023-04-24T08:26:39;21.01;39.28
77467;DHT22;66564;42.482;25.548;2023-04-24T08:29:05;20.13;42.31
77467;DHT22;66564;42.482;25.548;2023-04-24T08:31:31;20.64;40.34
77467;DHT22;66564;42.482;25.548;2023-04-24T08:33:57;20.78;39.88
77467;DHT22;66564;42.482;25.548;2023-04-24T08:36:23;20.54;40.67
77467;DHT22;66564;42.482;25.548;2023-04-24T08:38:49;20.92;40.33
77467;DHT22;66564;42.482;25.548;2023-04-24T08:41:15;21.15;40.66
77467;DHT22;66564;42.482;25.548;2023-04-24T08:43:42;21.35;40.07
77467;DHT22;66564;42.482;25.548;2023-04-24T08:46:07;21.49;38.13
77467;DHT22;66564;42.482;25.548;2023-04-24T08:48:34;21.50;39.72
77467;DHT22;66564;42.482;25.548;2023-04-24T08:51:00;21.52;38.41
77467;DHT22;66564;42.482;25.548;2023-04-24T08:53:27;21.59;38.89
77467;DHT22;66564;42.482;25.548;2023-04-24T08:55:54;21.18;40.01
77467;DHT22;66564;42.482;25.548;2023-04-24T08:58:20;21.43;40.01
77467;DHT22;66564;42.482;25.548;2023-04-24T09:00:47;21.45;38.59
77467;DHT22;66564;42.482;25.548;2023-04-24T09:03:15;21.60;40.36
77467;DHT22;66564;42.482;25.548;2023-04-24T09:05:46;21.43;39.07
77467;DHT22;66564;42.482;25.548;2023-04-24T09:08:13;21.66;39.52
77467;DHT22;66564;42.482;25.548;2023-04-24T09:10:40;21.86;39.47
77467;DHT22;66564;42.482;25.548;2023-04-24T09:13:06;21.25;39.90
77467;DHT22;66564;42.482;25.548;2023-04-24T09:15:34;21.50;39.14
77467;DHT22;66564;42.482;25.548;2023-04-24T09:18:00;21.73;39.45
77467;DHT22;66564;42.482;25.548;2023-04-24T09:20:26;21.33;39.00
77467;DHT22;66564;42.482;25.548;2023-04-24T09:22:56;20.55;39.95
77467;DHT22;66564;42.482;25.548;2023-04-24T09:25:24;20.87;42.34
77467;DHT22;66564;42.482;25.548;2023-04-24T09:27:53;20.81;41.60
77467;DHT22;66564;42.482;25.548;2023-04-24T09:30:23;20.81;41.36
77467;DHT22;66564;42.482;25.548;2023-04-24T09:32:48;20.75;41.72
77467;DHT22;66564;42.482;25.548;2023-04-24T09:35:15;20.89;40.31
77467;DHT22;66564;42.482;25.548;2023-04-24T09:37:59;21.16;40.19
77467;DHT22;66564;42.482;25.548;2023-04-24T09:40:25;21.43;40.21
77467;DHT22;66564;42.482;25.548;2023-04-24T09:42:55;21.13;43.59
77467;DHT22;66564;42.482;25.548;2023-04-24T09:45:42;21.46;40.80
77467;DHT22;66564;42.482;25.548;2023-04-24T09:48:09;21.60;41.35
77467;DHT22;66564;42.482;25.548;2023-04-24T09:50:37;21.98;39.68
77467;DHT22;66564;42.482;25.548;2023-04-24T09:53:04;21.70;39.48
77467;DHT22;66564;42.482;25.548;2023-04-24T09:55:30;21.98;39.10
77467;DHT22;66564;42.482;25.548;2023-04-24T09:58:00;21.73;40.31
77467;DHT22;66564;42.482;25.548;2023-04-24T10:00:31;21.86;38.91
77467;DHT22;66564;42.482;25.548;2023-04-24T10:02:59;22.07;39.42
77467;DHT22;66564;42.482;25.548;2023-04-24T10:05:29;22.11;39.92
77467;DHT22;66564;42.482;25.548;2023-04-24T10:08:05;21.94;39.26
77467;DHT22;66564;42.482;25.548;2023-04-24T10:10:38;21.74;39.58
77467;DHT22;66564;42.482;25.548;2023-04-24T10:13:04;21.43;40.10
77467;DHT22;66564;42.482;25.548;2023-04-24T10:15:30;21.49;40.34
77467;DHT22;66564;42.482;25.548;2023-04-24T10:17:58;21.02;42.12
77467;DHT22;66564;42.482;25.548;2023-04-24T10:20:28;20.54;41.58
77467;DHT22;66564;42.482;25.548;2023-04-24T10:22:56;20.21;43.93
77467;DHT22;66564;42.482;25.548;2023-04-24T10:25:29;20.06;44.02
77467;DHT22;66564;42.482;25.548;2023-04-24T10:27:56;19.76;43.98
77467;DHT22;66564;42.482;25.548;2023-04-24T10:30:26;19.39;45.48
77467;DHT22;66564;42.482;25.548;2023-04-24T10:32:52;19.82;44.06
77467;DHT22;66564;42.482;25.548;2023-04-24T10:35:18;20.07;44.14
77467;DHT22;66564;42.482;25.548;2023-04-24T10:40:26;19.94;43.33
77467;DHT22;66564;42.482;25.548;2023-04-24T10:42:55;20.12;43.91
77467;DHT22;66564;42.482;25.548;2023-04-24T10:45:23;20.03;44.77
77467;DHT22;66564;42.482;25.548;2023-04-24T10:48:08;20.12;44.04
77467;DHT22;66564;42.482;25.548;2023-04-24T10:50:56;20.33;44.15
77467;DHT22;66564;42.482;25.548;2023-04-24T10:53:34;19.76;45.31
77467;DHT22;66564;42.482;25.548;2023-04-24T10:56:05;20.04;43.31
77467;DHT22;66564;42.482;25.548;2023-04-24T11:01:05;20.63;42.87
77467;DHT22;66564;42.482;25.548;2023-04-24T11:03:33;20.59;42.57
77467;DHT22;66564;42.482;25.548;2023-04-24T11:06:07;20.85;43.04
77467;DHT22;66564;42.482;25.548;2023-04-24T11:08:42;20.61;43.06
77467;DHT22;66564;42.482;25.548;2023-04-24T11:11:15;20.88;42.32
77467;DHT22;66564;42.482;25.548;2023-04-24T11:16:27;20.21;43.65
77467;DHT22;66564;42.482;25.548;2023-04-24T11:19:24;19.79;44.36
77467;DHT22;66564;42.482;25.548;2023-04-24T11:22:01;19.94;44.61
77467;DHT22;66564;42.482;25.548;2023-04-24T11:24:48;20.14;44.56
77467;DHT22;66564;42.482;25.548;2023-04-24T11:27:19;20.38;44.20
77467;DHT22;66564;42.482;25.548;2023-04-24T11:32:36;20.84;43.99
77467;DHT22;66564;42.482;25.548;2023-04-24T11:35:06;20.41;43.50
77467;DHT22;66564;42.482;25.548;2023-04-24T11:37:40;20.51;43.76
77467;DHT22;66564;42.482;25.548;2023-04-24T11:40:07;20.57;43.32
77467;DHT22;66564;42.482;25.548;2023-04-24T11:42:42;20.72;43.67
77467;DHT22;66564;42.482;25.548;2023-04-24T11:45:12;20.65;43.41
77467;DHT22;66564;42.482;25.548;2023-04-24T11:47:38;20.74;42.97
77467;DHT22;66564;42.482;25.548;2023-04-24T11:50:07;20.72;42.91
77467;DHT22;66564;42.482;25.548;2023-04-24T11:52:37;20.71;43.24
77467;DHT22;66564;42.482;25.548;2023-04-24T11:55:02;20.55;43.63
77467;DHT22;66564;42.482;25.548;2023-04-24T11:57:29;20.47;44.36
77467;DHT22;66564;42.482;25.548;2023-04-24T12:00:02;20.16;47.20
77467;DHT22;66564;42.482;25.548;2023-04-24T12:02:29;20.25;49.18
77467;DHT22;66564;42.482;25.548;2023-04-24T12:04:54;20.17;49.39
77467;DHT22;66564;42.482;25.548;2023-04-24T12:07:21;20.06;50.74
77467;DHT22;66564;42.482;25.548;2023-04-24T12:09:54;19.87;47.48
77467;DHT22;66564;42.482;25.548;2023-04-24T12:12:20;19.77;50.28
77467;DHT22;66564;42.482;25.548;2023-04-24T12:14:57;19.66;51.51
77467;DHT22;66564;42.482;25.548;2023-04-24T12:17:25;19.53;49.92
77467;DHT22;66564;42.482;25.548;2023-04-24T12:19:51;19.19;52.00
77467;DHT22;66564;42.482;25.548;2023-04-24T12:22:17;19.33;49.99
77467;DHT22;66564;42.482;25.548;2023-04-24T12:24:59;19.32;50.36
77467;DHT22;66564;42.482;25.548;2023-04-24T12:27:28;19.15;48.63
77467;DHT22;66564;42.482;25.548;2023-04-24T12:29:57;18.67;46.71
77467;DHT22;66564;42.482;25.548;2023-04-24T12:32:23;18.97;49.34
77467;DHT22;66564;42.482;25.548;2023-04-24T12:34:51;19.18;48.59
77467;DHT22;66564;42.482;25.548;2023-04-24T12:37:17;19.43;47.29
77467;DHT22;66564;42.482;25.548;2023-04-24T12:40:07;19.56;47.61
77467;DHT22;66564;42.482;25.548;2023-04-24T12:42:34;19.76;47.62
77467;DHT22;66564;42.482;25.548;2023-04-24T12:45:05;19.86;47.01
77467;DHT22;66564;42.482;25.548;2023-04-24T12:47:32;19.69;47.76
77467;DHT22;66564;42.482;25.548;2023-04-24T12:49:59;19.90;46.53
77467;DHT22;66564;42.482;25.548;2023-04-24T12:52:25;20.06;46.38
77467;DHT22;66564;42.482;25.548;2023-04-24T12:54:56;20.16;45.48
77467;DHT22;66564;42.482;25.548;2023-04-24T12:57:22;20.49;46.64
77467;DHT22;66564;42.482;25.548;2023-04-24T12:59:48;20.59;44.10
77467;DHT22;66564;42.482;25.548;2023-04-24T13:02:14;20.89;43.32
77467;DHT22;66564;42.482;25.548;2023-04-24T13:04:44;20.88;42.87
77467;DHT22;66564;42.482;25.548;2023-04-24T13:07:10;20.85;42.71
77467;DHT22;66564;42.482;25.548;2023-04-24T13:09:35;20.94;42.84
77467;DHT22;66564;42.482;25.548;2023-04-24T13:12:02;20.79;42.22
77467;DHT22;66564;42.482;25.548;2023-04-24T13:14:28;20.89;41.28
77467;DHT22;66564;42.482;25.548;2023-04-24T13:16:53;20.44;42.92
77467;DHT22;66564;42.482;25.548;2023-04-24T13:19:19;20.10;45.80
77467;DHT22;66564;42.482;25.548;2023-04-24T13:21:45;20.21;44.47
77467;DHT22;66564;42.482;25.548;2023-04-24T13:24:10;20.41;44.04
77467;DHT22;66564;42.482;25.548;2023-04-24T13:26:39;20.35;44.64
77467;DHT22;66564;42.482;25.548;2023-04-24T13:29:05;20.45;44.05
77467;DHT22;66564;42.482;25.548;2023-04-24T13:31:30;20.43;44.80
77467;DHT22;66564;42.482;25.548;2023-04-24T13:33:56;20.33;44.68
77467;DHT22;66564;42.482;25.548;2023-04-24T13:36:22;20.43;45.47
77467;DHT22;66564;42.482;25.548;2023-04-24T13:38:47;20.44;44.88
77467;DHT22;66564;42.482;25.548;2023-04-24T13:41:13;20.44;44.61
77467;DHT22;66564;42.482;25.548;2023-04-24T13:43:38;20.34;45.19
77467;DHT22;66564;42.482;25.548;2023-04-24T13:46:04;20.21;45.77
77467;DHT22;66564;42.482;25.548;2023-04-24T13:48:30;20.00;45.57
77467;DHT22;66564;42.482;25.548;2023-04-24T13:50:55;19.93;47.06
77467;DHT22;66564;42.482;25.548;2023-04-24T13:53:24;19.65;47.12
77467;DHT22;66564;42.482;25.548;2023-04-24T13:55:50;19.48;44.59
77467;DHT22;66564;42.482;25.548;2023-04-24T13:58:15;19.59;45.66
77467;DHT22;66564;42.482;25.548;2023-04-24T14:00:41;19.50;45.86
77467;DHT22;66564;42.482;25.548;2023-04-24T14:03:07;19.43;44.92
77467;DHT22;66564;42.482;25.548;2023-04-24T14:05:32;19.48;45.02
77467;DHT22;66564;42.482;25.548;2023-04-24T14:07:58;19.59;45.91
77467;DHT22;66564;42.482;25.548;2023-04-24T14:10:23;19.55;44.61
77467;DHT22;66564;42.482;25.548;2023-04-24T14:12:49;19.62;44.30
77467;DHT22;66564;42.482;25.548;2023-04-24T14:15:15;19.62;44.84
77467;DHT22;66564;42.482;25.548;2023-04-24T14:17:42;19.63;44.53
77467;DHT22;66564;42.482;25.548;2023-04-24T14:20:09;19.69;43.48
77467;DHT22;66564;42.482;25.548;2023-04-24T14:22:34;19.82;44.44
77467;DHT22;66564;42.482;25.548;2023-04-24T14:25:00;19.70;43.99
77467;DHT22;66564;42.482;25.548;2023-04-24T14:27:25;19.83;43.55
77467;DHT22;66564;42.482;25.548;2023-04-24T14:29:52;19.53;44.00
77467;DHT22;66564;42.482;25.548;2023-04-24T14:32:17;19.66;44.13
77467;DHT22;66564;42.482;25.548;2023-04-24T14:34:43;19.62;43.65
77467;DHT22;66564;42.482;25.548;2023-04-24T14:37:08;19.62;44.62
77467;DHT22;66564;42.482;25.548;2023-04-24T14:39:37;19.26;45.67
77467;DHT22;66564;42.482;25.548;2023-04-24T14:42:08;19.38;45.98
77467;DHT22;66564;42.482;25.548;2023-04-24T14:44:33;19.36;46.27
77467;DHT22;66564;42.482;25.548;2023-04-24T14:46:59;19.45;46.53
77467;DHT22;66564;42.482;25.548;2023-04-24T14:49:25;19.43;46.52
77467;DHT22;66564;42.482;25.548;2023-04-24T14:51:51;19.38;46.68
77467;DHT22;66564;42.482;25.548;2023-04-24T14:54:17;19.36;47.41
77467;DHT22;66564;42.482;25.548;2023-04-24T14:56:43;19.14;48.07
77467;DHT22;66564;42.482;25.548;2023-04-24T14:59:09;19.18;48.27
77467;DHT22;66564;42.482;25.548;2023-04-24T15:01:35;19.16;47.94
77467;DHT22;66564;42.482;25.548;2023-04-24T15:04:01;19.16;48.50
77467;DHT22;66564;42.482;25.548;2023-04-24T15:06:26;19.04;48.74
77467;DHT22;66564;42.482;25.548;2023-04-24T15:08:52;18.97;49.20
77467;DHT22;66564;42.482;25.548;2023-04-24T15:11:17;18.37;50.38
77467;DHT22;66564;42.482;25.548;2023-04-24T15:13:43;18.57;50.54
77467;DHT22;66564;42.482;25.548;2023-04-24T15:16:10;18.50;51.31
77467;DHT22;66564;42.482;25.548;2023-04-24T15:18:38;18.51;50.98
77467;DHT22;66564;42.482;25.548;2023-04-24T15:21:04;18.45;51.26
77467;DHT22;66564;42.482;25.548;2023-04-24T15:23:29;18.30;51.95
77467;DHT22;66564;42.482;25.548;2023-04-24T15:25:55;18.26;51.80